Latest Weather Observations for Mackay

IDQ60801

Issued at 2:05 pm EST Friday 28 November 2014 (issued every 30 minutes, with the page automatically refreshed every 10 minutes)

About weather observations | Map of weather stations | Latest weather observations for QLD | Other Formats
Station Details ID: 033119 Name: MACKAY M.O Lat: -21.12 Lon: 149.22 Height: 30.26 m
Data from the previous 72 hours. | See also: Recent months at Mackay
Date/Time
EST
Temp
°C
App
Temp
°C
Dew
Point
Rel
Hum
%
Delta-T
°C
Wind Press
QNH
hPa
Press
MSL
hPa
Rain
since 9 am
mm
Dir
 
Spd
km/h
Gust
km/h
Spd
kts
Gust
kts
28/01:30pm 29.5 29.8 19.6 55 6.5 ESE 17 30 9 16 1013.3 1013.1 0.0
28/01:00pm 29.3 29.2 18.8 53 6.8 SE 17 30 9 16 1013.5 1013.3 0.0
28/12:30pm 28.9 28.8 19.5 57 6.1 SE 19 28 10 15 1013.7 1013.5 0.0
28/12:00pm 29.5 29.0 18.6 52 7.0 SE 19 28 10 15 1013.9 1013.7 0.0
28/11:30am 29.4 29.0 18.9 53 6.8 SE 19 28 10 15 1014.2 1014.0 0.0
28/11:00am 29.2 29.2 19.0 54 6.6 SE 17 28 9 15 1014.5 1014.3 0.0
28/10:30am 29.4 29.6 19.4 55 6.5 SE 17 30 9 16 1014.5 1014.3 0.0
28/10:00am 28.6 28.9 19.5 58 5.9 SE 17 26 9 14 1014.6 1014.4 0.0
28/09:30am 28.6 28.9 19.5 58 5.9 SE 17 24 9 13 1014.7 1014.5 0.0
28/09:00am 28.6 29.6 19.4 57 6.0 SE 13 22 7 12 1014.7 1014.5 0.0
28/08:30am 28.2 28.8 19.4 59 5.7 SE 15 20 8 11 1014.5 1014.3 0.0
28/08:00am 27.3 27.7 18.9 60 5.4 SE 15 26 8 14 1014.4 1014.2 0.0
28/07:30am 27.2 28.4 19.0 61 5.3 ESE 11 19 6 10 1014.2 1014.0 0.0
28/07:00am 25.8 26.8 18.6 64 4.6 E 11 19 6 10 1014.2 1014.0 0.0
28/06:30am 23.4 25.9 20.3 83 2.0 S 7 13 4 7 1014.1 1013.9 0.0
28/06:00am 22.4 24.8 20.1 87 1.5 SSW 7 11 4 6 1013.8 1013.6 0.0
28/05:30am 21.8 24.3 19.8 88 1.3 S 6 7 3 4 1013.3 1013.1 0.0
28/05:00am 21.4 23.7 19.8 91 1.0 SSW 7 11 4 6 1012.9 1012.7 0.0
28/04:30am 21.9 24.2 19.9 88 1.3 SSW 7 11 4 6 1012.7 1012.5 0.0
28/04:00am 24.8 26.2 19.5 72 3.4 E 11 17 6 9 1012.6 1012.4 0.0
28/03:30am 24.8 25.8 19.4 72 3.5 E 13 19 7 10 1012.5 1012.3 0.0
28/03:00am 24.8 25.8 19.4 72 3.5 E 13 17 7 9 1012.3 1012.1 0.0
28/02:30am 24.9 26.1 19.8 73 3.3 E 13 22 7 12 1012.4 1012.2 0.0
28/02:00am 25.0 26.4 19.6 72 3.5 E 11 17 6 9 1012.4 1012.2 0.0
28/01:30am 24.5 26.1 19.9 75 3.0 ENE 11 20 6 11 1012.6 1012.4 0.0
28/01:00am 25.1 26.3 20.0 73 3.3 E 13 20 7 11 1012.8 1012.6 0.0
28/12:30am 25.1 26.6 19.8 72 3.4 E 11 19 6 10 1013.0 1012.8 0.0
28/12:00am 25.0 26.3 20.2 74 3.1 E 13 19 7 10 1013.1 1012.9 0.0
 
Date/Time
EST
Temp
°C
App
Temp
°C
Dew
Point
Rel
Hum
%
Delta-T
°C
Wind Press
QNH
hPa
Press
MSL
hPa
Rain
since 9 am
mm
Dir
 
Spd
km/h
Gust
km/h
Spd
kts
Gust
kts
27/11:30pm 25.2 26.1 20.0 73 3.4 E 15 22 8 12 1013.3 1013.1 0.0
27/11:00pm 25.1 26.3 19.8 72 3.4 E 13 20 7 11 1013.6 1013.4 0.0
27/10:30pm 25.1 26.1 20.2 74 3.2 E 15 20 8 11 1013.7 1013.5 0.0
27/10:00pm 25.4 26.6 20.0 72 3.5 E 13 22 7 12 1013.9 1013.7 0.0
27/09:30pm 25.4 27.0 20.8 75 3.0 E 13 20 7 11 1013.7 1013.5 0.0
27/09:00pm 25.4 26.5 20.5 74 3.2 E 15 20 8 11 1013.5 1013.3 0.0
27/08:30pm 25.2 26.4 20.6 75 3.0 E 15 20 8 11 1013.4 1013.2 0.0
27/08:00pm 25.3 26.2 20.9 76 2.9 E 17 22 9 12 1013.3 1013.1 0.0
27/07:30pm 25.4 26.4 21.0 76 2.9 E 17 24 9 13 1013.0 1012.8 0.0
27/07:00pm 25.5 27.0 20.6 74 3.2 E 13 20 7 11 1012.8 1012.6 0.0
27/06:30pm 25.7 26.9 20.7 74 3.3 E 15 20 8 11 1012.7 1012.5 0.0
27/06:00pm 26.1 27.6 20.5 71 3.7 ENE 13 22 7 12 1012.6 1012.4 0.0
27/05:30pm 26.4 27.9 20.6 70 3.8 ENE 13 20 7 11 1012.2 1012.0 0.0
27/05:00pm 26.5 28.0 20.6 70 3.9 E 13 22 7 12 1012.0 1011.8 0.0
27/04:30pm 26.6 27.7 19.7 66 4.5 E 13 22 7 12 1012.0 1011.8 0.0
27/04:00pm 26.7 27.9 19.8 66 4.5 E 13 19 7 10 1011.9 1011.7 0.0
27/03:30pm 26.9 28.7 20.3 67 4.3 E 11 19 6 10 1012.0 1011.8 0.0
27/03:00pm 27.9 29.1 20.0 62 5.2 E 13 20 7 11 1012.1 1011.9 0.0
27/02:30pm 28.2 29.5 20.1 61 5.3 E 13 22 7 12 1012.3 1012.1 0.0
27/02:00pm 27.1 28.5 20.4 66 4.4 ESE 13 19 7 10 1012.5 1012.3 0.0
27/01:30pm 27.1 27.9 19.9 64 4.7 E 15 20 8 11 1012.7 1012.5 0.0
27/01:00pm 27.9 29.0 20.5 64 4.9 E 15 24 8 13 1013.0 1012.8 0.0
27/12:30pm 27.4 28.5 20.4 65 4.6 E 15 24 8 13 1013.3 1013.1 0.0
27/12:00pm 28.3 29.7 20.4 62 5.2 E 13 20 7 11 1013.5 1013.3 0.0
27/11:30am 28.3 29.8 20.6 63 5.1 E 13 19 7 10 1013.8 1013.6 0.0
27/11:00am 27.8 29.2 20.3 63 4.9 E 13 22 7 12 1013.9 1013.7 0.0
27/10:30am 28.0 28.9 20.1 62 5.2 E 15 20 8 11 1014.2 1014.0 0.0
27/10:00am 29.1 30.2 19.6 56 6.2 E 13 20 7 11 1014.4 1014.2 0.0
27/09:30am 28.5 29.4 20.1 60 5.5 E 15 20 8 11 1014.5 1014.3 0.0
27/09:00am 28.5 29.5 20.3 61 5.4 E 15 20 8 11 1014.6 1014.4 0.2
27/08:30am 27.1 28.4 20.2 66 4.5 E 13 17 7 9 1014.6 1014.4 0.2
27/08:00am 26.6 28.3 20.2 68 4.2 ESE 11 17 6 9 1014.7 1014.5 0.2
27/07:30am 28.0 29.3 20.1 62 5.2 E 13 20 7 11 1014.7 1014.5 0.2
27/07:00am 25.2 27.7 19.8 72 3.5 S 6 11 3 6 1014.5 1014.3 0.2
27/06:30am 25.6 26.9 19.4 68 4.0 ESE 11 17 6 9 1014.7 1014.5 0.2
27/06:00am 25.5 27.4 19.8 70 3.7 ESE 9 17 5 9 1014.2 1014.0 0.2
27/05:30am 24.9 26.2 19.3 71 3.6 E 11 17 6 9 1013.8 1013.6 0.2
27/05:00am 24.9 26.3 19.5 72 3.5 E 11 19 6 10 1013.6 1013.4 0.2
27/04:30am 24.8 26.0 19.0 70 3.7 E 11 19 6 10 1013.4 1013.2 0.2
27/04:00am 24.6 25.4 19.0 71 3.6 E 13 19 7 10 1013.2 1013.0 0.2
27/03:30am 24.7 25.0 18.7 69 3.8 E 15 22 8 12 1013.0 1012.8 0.2
27/03:00am 24.9 24.6 18.3 66 4.2 E 17 26 9 14 1013.0 1012.8 0.2
27/02:30am 25.0 25.1 19.2 70 3.7 E 17 26 9 14 1013.1 1012.9 0.2
27/02:00am 25.0 25.1 19.2 70 3.7 E 17 24 9 13 1013.1 1012.9 0.2
27/01:30am 24.9 25.0 19.1 70 3.7 E 17 24 9 13 1013.2 1013.0 0.2
27/01:00am 24.9 25.1 19.3 71 3.6 E 17 24 9 13 1013.4 1013.2 0.2
27/12:30am 25.0 25.2 19.4 71 3.6 E 17 30 9 16 1013.7 1013.5 0.2
27/12:00am 25.2 25.8 19.5 70 3.7 E 15 22 8 12 1013.9 1013.7 0.2
 
Date/Time
EST
Temp
°C
App
Temp
°C
Dew
Point
Rel
Hum
%
Delta-T
°C
Wind Press
QNH
hPa
Press
MSL
hPa
Rain
since 9 am
mm
Dir
 
Spd
km/h
Gust
km/h
Spd
kts
Gust
kts
26/11:30pm 25.1 24.9 19.3 70 3.7 E 19 28 10 15 1014.0 1013.8 0.2
26/11:00pm 25.2 25.4 20.1 73 3.3 E 19 26 10 14 1014.3 1014.1 0.2
26/10:30pm 25.3 25.8 20.1 73 3.4 ENE 17 28 9 15 1014.4 1014.2 0.2
26/10:00pm 25.5 26.1 20.3 73 3.4 E 17 30 9 16 1014.4 1014.2 0.2
26/09:30pm 25.5 26.4 20.8 75 3.1 E 17 26 9 14 1014.2 1014.0 0.2
26/09:00pm 25.5 27.1 20.8 75 3.1 E 13 20 7 11 1014.0 1013.8 0.2
26/08:30pm 25.4 26.7 20.8 75 3.0 E 15 24 8 13 1013.8 1013.6 0.2
26/08:00pm 25.5 27.1 20.8 75 3.1 E 13 20 7 11 1013.9 1013.7 0.2
26/07:30pm 25.5 27.3 21.1 76 2.9 E 13 20 7 11 1013.7 1013.5 0.2
26/07:00pm 25.6 27.2 21.5 78 2.7 ENE 15 22 8 12 1013.4 1013.2 0.2
26/06:30pm 25.8 26.9 20.5 72 3.5 ENE 15 20 8 11 1013.3 1013.1 0.2
26/06:00pm 26.1 27.0 20.9 73 3.4 E 17 24 9 13 1013.2 1013.0 0.2
26/05:30pm 27.0 28.9 21.4 71 3.7 ENE 13 20 7 11 1013.0 1012.8 0.2
26/05:00pm 27.1 28.9 21.1 69 4.0 ENE 13 24 7 13 1012.7 1012.5 0.2
26/04:30pm 27.9 29.1 21.5 68 4.3 ENE 17 26 9 14 1012.4 1012.2 0.2
26/04:00pm 28.6 30.1 21.3 64 4.9 NE 15 24 8 13 1012.2 1012.0 0.2
26/03:30pm 28.5 29.8 21.6 66 4.6 ENE 17 26 9 14 1012.5 1012.3 0.2
26/03:00pm 28.9 29.7 21.4 64 5.0 ENE 19 30 10 16 1012.6 1012.4 0.2
26/02:30pm 29.3 29.9 21.1 61 5.5 E 19 28 10 15 1012.8 1012.6 0.2
26/02:00pm 29.6 30.6 21.7 62 5.3 ENE 19 28 10 15 1012.9 1012.7 0.2
26/01:30pm 29.2 30.0 21.8 64 5.0 E 20 28 11 15 1013.0 1012.8 0.2
26/01:00pm 29.5 30.2 21.6 62 5.3 E 20 30 11 16 1013.3 1013.1 0.2
26/12:30pm 29.7 30.7 22.2 64 5.1 E 20 30 11 16 1013.6 1013.4 0.2
26/12:00pm 28.3 29.3 22.1 69 4.2 E 20 30 11 16 1013.8 1013.6 0.2
26/11:30am 29.0 29.5 22.0 66 4.7 E 22 30 12 16 1014.1 1013.9 0.2
26/11:00am 28.9 30.4 22.7 69 4.2 ENE 19 28 10 15 1014.3 1014.1 0.2
26/10:30am 29.1 30.4 22.6 68 4.4 E 20 28 11 15 1014.5 1014.3 0.2
26/10:00am 28.2 29.4 23.2 74 3.4 E 22 28 12 15 1014.5 1014.3 0.2
26/09:30am 28.2 29.2 22.8 72 3.7 E 22 33 12 18 1014.5 1014.3 0.0
26/09:00am 27.6 28.4 23.1 76 3.1 E 24 33 13 18 1014.4 1014.2 2.4
26/08:30am 26.6 28.9 24.1 86 1.7 E 19 26 10 14 1014.6 1014.4 2.4
26/08:00am 24.8 26.3 22.7 88 1.4 NE 19 33 10 18 1014.5 1014.3 1.4
26/07:30am 28.7 30.7 23.0 71 3.9 ENE 17 26 9 14 1014.1 1013.9 0.0
26/07:00am 27.8 30.3 23.1 75 3.2 ENE 15 26 8 14 1013.8 1013.6 0.0
26/06:30am 26.6 29.5 23.1 81 2.4 ENE 13 20 7 11 1013.4 1013.2 0.0
26/06:00am 26.1 28.9 23.0 83 2.1 ENE 13 24 7 13 1013.0 1012.8 0.0
26/05:30am 25.5 28.7 23.0 86 1.7 NE 11 19 6 10 1012.6 1012.4 0.0
26/05:00am 25.1 28.3 22.4 85 1.8 NNE 9 15 5 8 1012.4 1012.2 0.0
26/04:30am 25.4 29.1 23.2 88 1.5 ENE 9 17 5 9 1012.2 1012.0 0.0
26/04:00am 25.5 29.1 23.1 86 1.6 ENE 9 15 5 8 1012.1 1011.9 0.0
26/03:30am 25.7 29.0 23.2 86 1.7 ENE 11 19 6 10 1012.0 1011.8 0.0
26/03:00am 25.6 28.5 22.5 83 2.1 ENE 11 15 6 8 1012.0 1011.8 0.0
26/02:30am 25.4 28.8 23.3 88 1.4 ENE 11 20 6 11 1012.0 1011.8 0.0
26/02:00am 25.6 29.2 23.1 86 1.7 NNE 9 15 5 8 1011.9 1011.7 0.0
26/01:30am 25.7 28.6 23.2 86 1.7 NE 13 19 7 10 1012.0 1011.8 0.0
26/01:00am 25.4 28.4 22.7 85 1.8 NE 11 19 6 10 1012.3 1012.1 0.0
26/12:30am 25.9 29.1 23.1 84 1.9 NE 11 17 6 9 1012.6 1012.4 0.0
26/12:00am 25.7 29.4 23.2 86 1.7 NE 9 15 5 8 1013.2 1013.0 0.0
 
Date/Time
EST
Temp
°C
App
Temp
°C
Dew
Point
Rel
Hum
%
Delta-T
°C
Wind Press
QNH
hPa
Press
MSL
hPa
Rain
since 9 am
mm
Dir
 
Spd
km/h
Gust
km/h
Spd
kts
Gust
kts
25/11:30pm 25.9 29.1 23.1 84 1.9 ENE 11 17 6 9 1013.5 1013.3 0.0
25/11:00pm 26.0 29.0 23.4 85 1.8 E 13 19 7 10 1013.8 1013.6 0.0
25/10:30pm 25.9 28.9 23.4 86 1.7 ENE 13 24 7 13 1014.0 1013.8 0.0
25/10:00pm 25.8 28.7 23.2 85 1.8 ENE 13 20 7 11 1014.1 1013.9 0.0
25/09:30pm 26.1 29.0 23.2 84 2.0 ENE 13 20 7 11 1014.0 1013.8 0.0
25/09:24pm 26.1 29.0 23.2 84 2.0 ENE 13 20 7 11 1013.9 1013.7 0.0
25/09:00pm 26.2 29.1 23.1 83 2.1 E 13 20 7 11 1013.8 1013.6 0.0
25/08:34pm 26.1 29.0 23.2 84 2.0 E 13 20 7 11 1013.5 1013.3 0.0
25/08:30pm 26.1 28.9 23.0 83 2.1 E 13 20 7 11 1013.5 1013.3 0.0
25/08:28pm 26.1 28.5 22.9 82 2.2 E 15 20 8 11 1013.4 1013.2 0.0
25/08:11pm 26.0 28.3 22.7 82 2.2 E 15 22 8 12 1013.1 1012.9 0.0
25/08:08pm 26.0 28.4 22.9 83 2.1 E 15 22 8 12 1013.1 1012.9 0.0
25/08:00pm 26.0 28.4 22.9 83 2.1 E 15 22 8 12 1013.1 1012.9 0.0
25/07:41pm 26.0 29.2 23.1 84 2.0 E 11 22 6 12 1013.0 1012.8 0.0
25/07:30pm 26.0 29.2 23.1 84 2.0 ESE 11 19 6 10 1012.9 1012.7 0.0
25/07:26pm 26.0 29.2 23.1 84 2.0 ESE 11 19 6 10 1012.9 1012.7 0.0
25/07:14pm 26.2 29.1 23.1 83 2.1 ESE 13 22 7 12 1012.7 1012.5 0.0
25/07:00pm 26.1 28.8 22.9 82 2.2 E 13 20 7 11 1012.6 1012.4 0.0
25/06:30pm 26.2 28.9 22.8 81 2.3 ESE 13 20 7 11 1012.3 1012.1 0.0
25/06:00pm 26.5 28.8 22.0 76 3.0 ESE 13 22 7 12 1012.1 1011.9 0.0
25/05:30pm 27.3 29.6 22.1 73 3.5 ESE 13 24 7 13 1011.8 1011.6 0.0
25/05:00pm 27.5 29.3 21.8 71 3.8 ESE 15 24 8 13 1011.7 1011.5 0.0
25/04:30pm 28.0 30.2 21.9 69 4.1 ESE 13 20 7 11 1011.6 1011.4 0.0
25/04:00pm 28.3 29.6 20.9 64 4.9 ESE 15 22 8 12 1011.8 1011.6 0.0
25/03:30pm 28.7 30.8 21.0 63 5.1 ESE 11 19 6 10 1011.7 1011.5 0.0
25/03:00pm 28.3 30.1 21.1 65 4.8 ESE 13 20 7 11 1011.9 1011.7 0.0
25/02:30pm 28.7 30.5 21.2 64 5.0 E 13 20 7 11 1012.1 1011.9 0.0

Other Formats:

Comma delimited format used in spreadsheet applications
http://www.bom.gov.au/fwo/IDQ60801/IDQ60801.94367.axf

JavaScript Object Notation format (JSON) in row-major order
http://www.bom.gov.au/fwo/IDQ60801/IDQ60801.94367.json